createdAt,value
2018-03-16T00:01:14.016Z,80.28
2018-03-16T00:03:41.721Z,80.36
2018-03-16T00:06:09.245Z,80.34
2018-03-16T00:08:36.845Z,80.11
2018-03-16T00:11:04.366Z,80.09
2018-03-16T00:13:31.896Z,80.26
2018-03-16T00:15:59.417Z,80.07
2018-03-16T00:18:26.983Z,80.06
2018-03-16T00:20:54.527Z,80.00
2018-03-16T00:23:22.206Z,80.00
2018-03-16T00:25:49.727Z,79.90
2018-03-16T00:28:17.262Z,80.09
2018-03-16T00:30:44.800Z,79.97
2018-03-16T00:33:12.461Z,79.96
2018-03-16T00:35:39.972Z,80.05
2018-03-16T00:38:07.499Z,79.90
2018-03-16T00:40:35.033Z,79.86
2018-03-16T00:43:02.600Z,79.96
2018-03-16T00:45:30.109Z,79.80
2018-03-16T00:47:57.653Z,79.96
2018-03-16T00:50:25.225Z,79.84
2018-03-16T00:52:52.755Z,79.72
2018-03-16T00:55:20.274Z,79.94
2018-03-16T00:57:47.810Z,79.56
2018-03-16T01:00:15.338Z,79.45
2018-03-16T01:02:42.955Z,79.45
2018-03-16T01:05:10.514Z,79.66
2018-03-16T01:07:38.034Z,79.50
2018-03-16T01:10:05.639Z,79.45
2018-03-16T01:12:33.159Z,79.34
2018-03-16T01:15:00.757Z,79.42
2018-03-16T01:17:28.321Z,79.33
2018-03-16T01:19:55.878Z,79.27
2018-03-16T01:22:23.406Z,79.33
2018-03-16T01:24:50.939Z,79.47
2018-03-16T01:27:18.469Z,79.08
2018-03-16T01:29:46.014Z,79.18
2018-03-16T01:32:13.538Z,79.09
2018-03-16T01:34:41.090Z,79.03
2018-03-16T01:37:08.635Z,78.82
2018-03-16T01:39:36.194Z,78.89
2018-03-16T01:42:03.711Z,78.68
2018-03-16T01:44:31.238Z,78.64
2018-03-16T01:46:58.765Z,78.58
2018-03-16T01:49:26.387Z,78.42
2018-03-16T01:51:53.920Z,78.41
2018-03-16T01:54:21.465Z,78.33
2018-03-16T01:56:49.012Z,78.51
2018-03-16T01:59:16.566Z,78.16
2018-03-16T02:01:44.098Z,78.07
2018-03-16T02:04:11.617Z,77.76
2018-03-16T02:06:39.196Z,77.51
2018-03-16T02:09:06.709Z,77.50
2018-03-16T02:11:34.334Z,77.34
2018-03-16T02:14:01.875Z,77.15
2018-03-16T02:16:29.393Z,77.18
2018-03-16T02:18:56.938Z,76.97
2018-03-16T02:21:24.461Z,77.13
2018-03-16T02:23:52.013Z,76.74
2018-03-16T02:26:19.556Z,76.78
2018-03-16T02:28:47.072Z,76.79
2018-03-16T02:31:14.616Z,76.62
2018-03-16T02:33:42.278Z,76.16
2018-03-16T02:36:09.939Z,76.23
2018-03-16T02:38:37.469Z,76.06
2018-03-16T02:41:05.066Z,75.79
2018-03-16T02:43:32.721Z,75.51
2018-03-16T02:46:00.245Z,75.54
2018-03-16T02:48:27.765Z,75.62
2018-03-16T02:50:55.298Z,75.47
2018-03-16T02:53:22.834Z,75.48
2018-03-16T02:55:50.352Z,75.45
2018-03-16T02:58:17.908Z,75.21
2018-03-16T03:00:45.430Z,75.14
2018-03-16T03:03:12.970Z,75.13
2018-03-16T03:05:40.488Z,74.96
2018-03-16T03:08:08.086Z,75.13
2018-03-16T03:10:35.702Z,75.15
2018-03-16T03:13:03.233Z,74.87
2018-03-16T03:15:30.761Z,74.80
2018-03-16T03:17:58.358Z,74.91
2018-03-16T03:20:25.915Z,74.70
2018-03-16T03:22:53.442Z,74.71
2018-03-16T03:25:20.960Z,74.73
2018-03-16T03:27:48.489Z,74.69
2018-03-16T03:30:16.052Z,74.59
2018-03-16T03:32:43.583Z,74.55
2018-03-16T03:35:11.136Z,74.64
2018-03-16T03:37:38.656Z,74.61
2018-03-16T03:40:06.188Z,74.66
2018-03-16T03:42:33.746Z,74.63
2018-03-16T03:45:01.281Z,74.86
2018-03-16T03:47:28.799Z,74.88
2018-03-16T03:49:56.322Z,74.69
2018-03-16T03:52:23.839Z,74.83
2018-03-16T03:54:51.373Z,74.64
2018-03-16T03:57:18.910Z,74.73
2018-03-16T03:59:46.429Z,74.78
2018-03-16T04:02:13.990Z,74.84
2018-03-16T04:04:41.576Z,74.69
2018-03-16T04:07:09.142Z,74.90
2018-03-16T04:09:36.665Z,74.78
2018-03-16T04:12:04.186Z,74.88
2018-03-16T04:14:31.718Z,74.89
2018-03-16T04:16:59.240Z,75.01
2018-03-16T04:19:26.763Z,74.99
2018-03-16T04:21:54.291Z,75.06
2018-03-16T04:24:21.805Z,75.01
2018-03-16T04:26:49.335Z,75.00
2018-03-16T04:29:16.869Z,75.05
2018-03-16T04:31:44.408Z,75.08
2018-03-16T04:34:11.990Z,75.18
2018-03-16T04:36:39.509Z,75.23
2018-03-16T04:39:07.032Z,75.10
2018-03-16T04:41:34.568Z,75.08
2018-03-16T04:44:02.229Z,75.27
2018-03-16T04:46:29.931Z,75.18
2018-03-16T04:48:57.491Z,75.29
2018-03-16T04:51:25.054Z,75.05
2018-03-16T04:53:52.597Z,75.28
2018-03-16T04:56:20.236Z,75.11
2018-03-16T04:58:47.794Z,75.19
2018-03-16T05:01:15.325Z,75.33
2018-03-16T05:03:42.925Z,75.31
2018-03-16T05:06:10.489Z,75.27
2018-03-16T05:08:38.006Z,75.46
2018-03-16T05:11:05.593Z,75.33
2018-03-16T05:13:33.173Z,75.29
2018-03-16T05:16:00.703Z,75.21
2018-03-16T05:18:28.267Z,75.28
2018-03-16T05:20:55.891Z,75.19
2018-03-16T05:23:23.406Z,75.21
2018-03-16T05:25:50.959Z,75.26
2018-03-16T05:28:18.522Z,75.30
2018-03-16T05:30:46.076Z,75.26
2018-03-16T05:33:13.639Z,75.26
2018-03-16T05:35:41.199Z,75.11
2018-03-16T05:38:08.761Z,75.11
2018-03-16T05:40:36.287Z,75.06
2018-03-16T05:43:03.934Z,74.91
2018-03-16T05:45:31.556Z,74.85
2018-03-16T05:47:59.105Z,74.88
2018-03-16T05:50:26.673Z,74.87
2018-03-16T05:52:54.202Z,74.71
2018-03-16T05:55:21.762Z,74.76
2018-03-16T05:57:49.447Z,74.77
2018-03-16T06:00:17.112Z,74.65
2018-03-16T06:02:44.669Z,74.64
2018-03-16T06:05:12.181Z,74.63
2018-03-16T06:07:39.697Z,74.37
2018-03-16T06:10:07.231Z,74.45
2018-03-16T06:12:34.773Z,74.33
2018-03-16T06:15:02.382Z,74.17
2018-03-16T06:17:30.271Z,73.98
2018-03-16T06:19:57.825Z,73.81
2018-03-16T06:22:25.560Z,73.95
2018-03-16T06:24:53.222Z,73.84
2018-03-16T06:27:20.882Z,73.75
2018-03-16T06:29:48.478Z,73.62
2018-03-16T06:32:16.003Z,73.55
2018-03-16T06:34:44.151Z,73.36
2018-03-16T06:37:11.710Z,73.58
2018-03-16T06:39:39.228Z,73.59
2018-03-16T06:42:06.740Z,73.66
2018-03-16T06:44:34.334Z,73.47
2018-03-16T06:47:01.878Z,73.18
2018-03-16T06:49:29.436Z,72.78
2018-03-16T06:51:57.014Z,72.70
2018-03-16T06:54:24.557Z,72.70
2018-03-16T06:56:52.129Z,72.73
2018-03-16T06:59:19.687Z,72.94
2018-03-16T07:01:47.224Z,72.79
2018-03-16T07:04:14.765Z,72.70
2018-03-16T07:06:42.300Z,72.70
2018-03-16T07:09:09.845Z,72.80
2018-03-16T07:11:37.385Z,72.50
2018-03-16T07:14:05.008Z,72.55
2018-03-16T07:16:32.547Z,72.57
2018-03-16T07:19:00.077Z,72.70
2018-03-16T07:21:27.684Z,72.35
2018-03-16T07:23:55.201Z,71.97
2018-03-16T07:26:22.735Z,72.01
2018-03-16T07:28:50.266Z,71.75
2018-03-16T07:31:17.855Z,71.77
2018-03-16T07:33:45.386Z,71.32
2018-03-16T07:36:12.922Z,71.07
2018-03-16T07:38:40.532Z,70.82
2018-03-16T07:41:08.044Z,70.95
2018-03-16T07:43:35.649Z,71.07
2018-03-16T07:46:03.213Z,70.80
2018-03-16T07:48:30.740Z,70.71
2018-03-16T07:50:58.318Z,70.29
2018-03-16T07:53:25.896Z,70.43
2018-03-16T07:55:53.419Z,70.08
2018-03-16T07:58:20.950Z,69.78
2018-03-16T08:00:48.471Z,69.72
2018-03-16T08:03:15.987Z,69.77
2018-03-16T08:05:43.537Z,69.47
2018-03-16T08:08:11.069Z,69.47
2018-03-16T08:10:38.604Z,69.40
2018-03-16T08:13:06.140Z,69.17
2018-03-16T08:15:33.672Z,69.15
2018-03-16T08:18:01.197Z,69.39
2018-03-16T08:20:28.747Z,69.12
2018-03-16T08:22:56.288Z,69.12
2018-03-16T08:25:23.795Z,69.23
2018-03-16T08:27:51.338Z,69.06
2018-03-16T08:30:18.853Z,69.13
2018-03-16T08:32:46.374Z,68.99
2018-03-16T08:35:13.905Z,69.17
2018-03-16T08:37:41.428Z,68.97
2018-03-16T08:40:09.024Z,68.72
2018-03-16T08:42:36.582Z,68.51
2018-03-16T08:45:04.102Z,68.58
2018-03-16T08:47:31.636Z,68.59
2018-03-16T08:49:59.158Z,68.72
2018-03-16T08:52:26.683Z,68.78
2018-03-16T08:54:54.205Z,68.62
2018-03-16T08:57:21.839Z,68.69
2018-03-16T08:59:49.373Z,68.61
2018-03-16T09:02:16.936Z,68.69
2018-03-16T09:04:44.453Z,68.54
2018-03-16T09:07:11.978Z,68.45
2018-03-16T09:09:39.538Z,68.70
2018-03-16T09:12:07.053Z,68.52
2018-03-16T09:14:34.661Z,68.36
2018-03-16T09:17:02.197Z,68.64
2018-03-16T09:19:29.778Z,68.74
2018-03-16T09:21:57.304Z,68.63
2018-03-16T09:24:24.893Z,68.83
2018-03-16T09:26:52.421Z,68.73
2018-03-16T09:29:19.944Z,68.85
2018-03-16T09:31:47.475Z,69.08
2018-03-16T09:34:14.990Z,69.11
2018-03-16T09:36:42.525Z,69.10
2018-03-16T09:39:10.053Z,68.98
2018-03-16T09:41:37.615Z,69.37
2018-03-16T09:44:05.333Z,69.18
2018-03-16T09:46:33.099Z,69.23
2018-03-16T09:49:00.937Z,69.23
2018-03-16T09:51:28.679Z,69.33
2018-03-16T09:53:56.438Z,69.49
2018-03-16T09:56:24.206Z,69.90
2018-03-16T09:58:51.867Z,69.91
2018-03-16T10:01:19.459Z,69.85
2018-03-16T10:03:47.010Z,69.60
2018-03-16T10:06:14.548Z,69.66
2018-03-16T10:08:42.192Z,69.31
2018-03-16T10:11:09.735Z,69.25
2018-03-16T10:13:37.278Z,69.50
2018-03-16T10:16:04.899Z,69.34
2018-03-16T10:18:32.422Z,69.01
2018-03-16T10:21:00.213Z,68.74
2018-03-16T10:23:27.876Z,68.70
2018-03-16T10:25:55.463Z,68.55
2018-03-16T10:28:23.021Z,68.88
2018-03-16T10:30:50.537Z,68.91
2018-03-16T10:33:18.069Z,68.72
2018-03-16T10:35:45.669Z,68.91
2018-03-16T10:38:13.189Z,69.24
2018-03-16T10:40:40.882Z,68.98
2018-03-16T10:43:08.661Z,69.06
2018-03-16T10:45:36.454Z,69.29
2018-03-16T10:48:04.480Z,69.36
2018-03-16T10:50:32.163Z,69.67
2018-03-16T10:52:59.877Z,69.94
2018-03-16T10:55:27.485Z,70.04
2018-03-16T10:57:55.040Z,69.97
2018-03-16T11:00:28.373Z,69.77
2018-03-16T11:03:01.448Z,69.55
2018-03-16T11:05:46.720Z,69.50
2018-03-16T11:08:20.234Z,69.67
2018-03-16T11:10:48.022Z,69.75
2018-03-16T11:13:15.745Z,69.56
2018-03-16T11:15:43.399Z,69.73
2018-03-16T11:18:11.045Z,69.52
2018-03-16T11:20:38.562Z,69.41
2018-03-16T11:23:06.164Z,69.06
2018-03-16T11:25:33.738Z,69.09
2018-03-16T11:28:01.269Z,69.32
2018-03-16T11:30:29.081Z,69.16
2018-03-16T11:32:56.732Z,69.37
2018-03-16T11:35:24.389Z,69.49
2018-03-16T11:37:51.948Z,69.76
2018-03-16T11:40:19.474Z,69.85
2018-03-16T11:42:47.071Z,70.02
2018-03-16T11:45:14.642Z,70.36
2018-03-16T11:47:42.161Z,71.26
2018-03-16T11:50:09.690Z,71.26
2018-03-16T11:52:37.251Z,71.39
2018-03-16T11:55:04.791Z,71.76
2018-03-16T11:57:32.330Z,71.28
2018-03-16T11:59:59.859Z,71.35
2018-03-16T12:02:27.388Z,71.74
2018-03-16T12:04:54.947Z,71.20
2018-03-16T12:07:22.513Z,71.30
2018-03-16T12:09:50.046Z,71.89
2018-03-16T12:12:17.598Z,72.37
2018-03-16T12:14:45.110Z,72.68
2018-03-16T12:17:12.657Z,73.28
2018-03-16T12:19:40.212Z,73.50
2018-03-16T12:22:07.796Z,73.63
2018-03-16T12:24:35.339Z,73.64
2018-03-16T12:27:02.880Z,74.04
2018-03-16T12:29:30.403Z,73.70
2018-03-16T12:31:57.959Z,74.42
2018-03-16T12:34:25.517Z,74.51
2018-03-16T12:36:53.058Z,74.80
2018-03-16T12:39:20.596Z,74.72
2018-03-16T12:41:48.204Z,74.59
2018-03-16T12:44:15.725Z,74.73
2018-03-16T12:46:43.247Z,75.00
2018-03-16T12:49:10.782Z,74.68
2018-03-16T12:51:42.226Z,74.65
2018-03-16T12:54:06.021Z,75.08
2018-03-16T12:56:33.667Z,75.13
2018-03-16T12:59:01.194Z,74.98
2018-03-16T13:01:28.796Z,74.02
2018-03-16T13:03:56.317Z,74.61
2018-03-16T13:06:23.908Z,74.40
2018-03-16T13:08:51.470Z,74.61
2018-03-16T13:11:19.012Z,74.92
2018-03-16T13:13:46.541Z,73.94
2018-03-16T13:16:14.104Z,73.89
2018-03-16T13:18:41.673Z,74.11
2018-03-16T13:21:09.200Z,74.12
2018-03-16T13:23:36.740Z,74.07
2018-03-16T13:26:04.259Z,74.17
2018-03-16T13:28:31.778Z,74.21
2018-03-16T13:30:59.421Z,73.56
2018-03-16T13:33:26.933Z,74.12
2018-03-16T13:35:54.457Z,73.92
2018-03-16T13:38:21.982Z,72.87
2018-03-16T13:40:49.540Z,72.75
2018-03-16T13:43:17.102Z,72.46
2018-03-16T13:45:44.631Z,73.53
2018-03-16T13:48:12.151Z,73.39
2018-03-16T13:50:39.667Z,72.95
2018-03-16T13:53:07.222Z,73.64
2018-03-16T13:55:34.764Z,72.67
2018-03-16T13:58:02.317Z,72.89
2018-03-16T14:00:29.856Z,72.96
2018-03-16T14:02:57.426Z,73.65
2018-03-16T14:05:24.963Z,73.29
2018-03-16T14:07:52.484Z,73.11
2018-03-16T14:10:20.002Z,73.32
2018-03-16T14:12:47.549Z,73.49
2018-03-16T14:15:15.075Z,73.98
2018-03-16T14:17:42.612Z,73.87
2018-03-16T14:20:10.134Z,74.22
2018-03-16T14:22:37.756Z,74.61
2018-03-16T14:25:05.270Z,74.33
2018-03-16T14:27:32.799Z,74.86
2018-03-16T14:30:00.336Z,75.22
2018-03-16T14:32:27.862Z,74.98
2018-03-16T14:34:55.384Z,74.97
2018-03-16T14:37:23.017Z,75.12
2018-03-16T14:39:50.539Z,75.18
2018-03-16T14:42:18.167Z,75.43
2018-03-16T14:44:45.808Z,74.02
2018-03-16T14:47:14.014Z,74.42
2018-03-16T14:49:41.535Z,74.77
2018-03-16T14:52:09.054Z,74.96
2018-03-16T14:54:36.585Z,74.61
2018-03-16T14:57:04.107Z,74.75
2018-03-16T14:59:31.632Z,74.84
2018-03-16T15:01:59.148Z,75.25
2018-03-16T15:04:26.780Z,75.09
2018-03-16T15:06:54.348Z,74.80
2018-03-16T15:09:21.874Z,73.57
2018-03-16T15:11:49.469Z,73.10
2018-03-16T15:14:16.987Z,73.37
2018-03-16T15:16:44.521Z,73.67
2018-03-16T15:19:12.032Z,72.58
2018-03-16T15:21:39.594Z,72.43
2018-03-16T15:24:07.135Z,71.71
2018-03-16T15:26:34.644Z,71.51
2018-03-16T15:29:02.184Z,71.54
2018-03-16T15:31:29.741Z,71.22
2018-03-16T15:33:57.250Z,70.93
2018-03-16T15:36:24.778Z,71.61
2018-03-16T15:38:52.438Z,70.84
2018-03-16T15:41:19.971Z,69.18
2018-03-16T15:43:47.509Z,69.37
2018-03-16T15:46:15.089Z,69.42
2018-03-16T15:48:42.651Z,68.61
2018-03-16T15:51:10.210Z,66.54
2018-03-16T15:53:37.739Z,66.70
2018-03-16T15:56:05.274Z,65.83
2018-03-16T15:58:32.785Z,65.73
2018-03-16T16:01:00.363Z,65.94
2018-03-16T16:03:27.885Z,64.93
2018-03-16T16:05:55.405Z,64.56
2018-03-16T16:08:23.025Z,65.19
2018-03-16T16:10:50.548Z,64.89
2018-03-16T16:13:18.075Z,66.74
2018-03-16T16:15:45.709Z,64.68
2018-03-16T16:18:13.270Z,65.31
2018-03-16T16:20:40.795Z,65.07
2018-03-16T16:23:08.300Z,64.98
2018-03-16T16:25:35.815Z,64.68
2018-03-16T16:28:03.419Z,64.36
2018-03-16T16:30:30.928Z,63.90
2018-03-16T16:32:58.455Z,64.17
2018-03-16T16:35:25.966Z,64.79
2018-03-16T16:37:53.485Z,64.33
2018-03-16T16:40:21.000Z,64.55
2018-03-16T16:42:48.579Z,65.68
2018-03-16T16:45:16.100Z,65.20
2018-03-16T16:47:43.712Z,65.50
2018-03-16T16:50:11.239Z,65.33
2018-03-16T16:52:38.758Z,65.45
2018-03-16T16:55:06.299Z,65.67
2018-03-16T16:57:33.840Z,65.81
2018-03-16T17:00:01.399Z,65.70
2018-03-16T17:02:28.948Z,66.32
2018-03-16T17:04:56.612Z,66.23
2018-03-16T17:07:24.142Z,65.80
2018-03-16T17:09:51.698Z,65.67
2018-03-16T17:12:19.220Z,65.61
2018-03-16T17:14:46.761Z,65.70
2018-03-16T17:17:14.319Z,65.95
2018-03-16T17:19:41.836Z,65.27
2018-03-16T17:22:09.442Z,65.63
2018-03-16T17:24:36.998Z,65.78
2018-03-16T17:27:04.525Z,65.35
2018-03-16T17:29:32.122Z,65.10
2018-03-16T17:31:59.711Z,65.73
2018-03-16T17:34:27.342Z,65.58
2018-03-16T17:36:54.870Z,64.76
2018-03-16T17:39:22.441Z,65.01
2018-03-16T17:41:49.974Z,64.84
2018-03-16T17:44:17.684Z,64.75
2018-03-16T17:46:45.241Z,64.90
2018-03-16T17:49:12.758Z,65.30
2018-03-16T17:51:40.300Z,64.82
2018-03-16T17:54:07.816Z,65.88
2018-03-16T17:56:35.330Z,65.81
2018-03-16T17:59:03.151Z,65.06
2018-03-16T18:01:30.664Z,65.64
2018-03-16T18:03:58.502Z,65.19
2018-03-16T18:06:26.456Z,65.37
2018-03-16T18:08:54.106Z,64.63
2018-03-16T18:11:21.641Z,65.00
2018-03-16T18:13:49.173Z,64.73
2018-03-16T18:16:16.703Z,65.15
2018-03-16T18:18:44.223Z,64.92
2018-03-16T18:21:11.754Z,64.95
2018-03-16T18:23:39.300Z,65.39
2018-03-16T18:26:06.839Z,63.93
2018-03-16T18:28:34.357Z,64.78
2018-03-16T18:31:01.918Z,64.54
2018-03-16T18:33:29.545Z,63.67
2018-03-16T18:35:57.076Z,63.45
2018-03-16T18:38:24.583Z,63.89
2018-03-16T18:40:52.174Z,63.92
2018-03-16T18:43:19.772Z,63.62
2018-03-16T18:45:47.291Z,63.57
2018-03-16T18:48:14.850Z,63.29
2018-03-16T18:50:42.370Z,63.12
2018-03-16T18:53:09.940Z,64.23
2018-03-16T18:55:37.497Z,63.25
2018-03-16T18:58:05.025Z,63.54
2018-03-16T19:00:32.649Z,63.88
2018-03-16T19:03:00.164Z,64.89
2018-03-16T19:05:27.861Z,65.42
2018-03-16T19:07:55.385Z,66.48
2018-03-16T19:10:23.069Z,66.46
2018-03-16T19:12:50.762Z,67.58
2018-03-16T19:15:18.285Z,67.04
2018-03-16T19:17:45.809Z,66.43
2018-03-16T19:20:13.338Z,66.02
2018-03-16T19:22:40.992Z,66.43
2018-03-16T19:25:09.020Z,66.99
2018-03-16T19:27:36.557Z,66.63
2018-03-16T19:30:04.087Z,65.40
2018-03-16T19:32:31.625Z,65.87
2018-03-16T19:34:59.146Z,64.42
2018-03-16T19:37:26.792Z,64.40
2018-03-16T19:39:54.403Z,64.05
2018-03-16T19:42:21.921Z,64.32
2018-03-16T19:44:49.458Z,63.36
2018-03-16T19:47:17.016Z,63.08
2018-03-16T19:49:44.539Z,63.20
2018-03-16T19:52:12.248Z,62.75
2018-03-16T19:54:39.978Z,61.77
2018-03-16T19:57:07.665Z,61.52
2018-03-16T19:59:35.224Z,62.18
2018-03-16T20:02:02.768Z,61.32
2018-03-16T20:04:30.297Z,61.02
2018-03-16T20:06:57.952Z,61.74
2018-03-16T20:09:25.684Z,60.24
2018-03-16T20:11:53.491Z,59.86
2018-03-16T20:14:21.049Z,59.31
2018-03-16T20:16:48.581Z,60.87
2018-03-16T20:19:16.119Z,59.69
2018-03-16T20:21:44.188Z,59.95
2018-03-16T20:24:12.088Z,59.59
2018-03-16T20:26:40.055Z,58.98
2018-03-16T20:29:07.896Z,58.61
2018-03-16T20:31:35.487Z,57.72
2018-03-16T20:34:03.041Z,58.27
2018-03-16T20:36:30.979Z,57.94
2018-03-16T20:38:58.508Z,57.94
2018-03-16T20:41:26.016Z,58.59
2018-03-16T20:43:53.657Z,58.48
2018-03-16T20:46:21.183Z,57.56
2018-03-16T20:48:48.701Z,58.22
2018-03-16T20:51:16.351Z,57.89
2018-03-16T20:53:43.893Z,57.23
2018-03-16T20:56:11.452Z,57.33
2018-03-16T20:58:38.970Z,56.91
2018-03-16T21:01:06.499Z,57.28
2018-03-16T21:03:34.034Z,56.84
2018-03-16T21:06:01.563Z,57.50
2018-03-16T21:08:29.089Z,57.62
2018-03-16T21:10:56.625Z,57.13
2018-03-16T21:13:24.141Z,57.46
2018-03-16T21:15:51.654Z,56.75
2018-03-16T21:18:19.186Z,55.92
2018-03-16T21:20:46.713Z,56.00
2018-03-16T21:23:14.306Z,55.95
2018-03-16T21:25:41.821Z,55.44
2018-03-16T21:28:09.338Z,55.25
2018-03-16T21:30:36.873Z,55.32
2018-03-16T21:33:04.397Z,55.50
2018-03-16T21:35:31.944Z,55.84
2018-03-16T21:37:59.464Z,54.63
2018-03-16T21:40:27.006Z,54.47
2018-03-16T21:42:54.534Z,55.26
2018-03-16T21:45:22.065Z,55.39
2018-03-16T21:47:49.609Z,55.19
2018-03-16T21:50:17.113Z,54.67
2018-03-16T21:52:44.631Z,55.64
2018-03-16T21:55:12.147Z,55.55
2018-03-16T21:57:39.674Z,54.17
2018-03-16T22:00:07.198Z,53.89
2018-03-16T22:02:34.737Z,53.72
2018-03-16T22:05:02.274Z,54.25
2018-03-16T22:07:29.800Z,53.85
2018-03-16T22:09:57.320Z,54.17
2018-03-16T22:12:24.844Z,54.07
2018-03-16T22:14:52.357Z,53.76
2018-03-16T22:17:19.887Z,53.28
2018-03-16T22:19:47.400Z,53.92
2018-03-16T22:22:14.933Z,53.77
2018-03-16T22:24:42.451Z,53.46
2018-03-16T22:27:10.027Z,53.76
2018-03-16T22:29:37.611Z,54.24
2018-03-16T22:32:05.157Z,53.55
2018-03-16T22:34:32.697Z,54.08
2018-03-16T22:37:00.294Z,53.66
2018-03-16T22:39:27.808Z,53.12
2018-03-16T22:41:55.330Z,53.56
2018-03-16T22:44:22.843Z,53.06
2018-03-16T22:46:50.430Z,53.11
2018-03-16T22:49:17.962Z,52.68
2018-03-16T22:51:45.485Z,53.00
2018-03-16T22:54:13.009Z,53.45
2018-03-16T22:56:40.615Z,53.63
2018-03-16T22:59:08.127Z,52.81
2018-03-16T23:01:35.687Z,53.17
2018-03-16T23:04:03.215Z,53.08
2018-03-16T23:06:30.754Z,52.29
2018-03-16T23:08:58.300Z,53.81
2018-03-16T23:11:25.809Z,53.39
2018-03-16T23:13:53.381Z,52.95
2018-03-16T23:16:20.911Z,52.96
2018-03-16T23:18:48.425Z,52.56
2018-03-16T23:21:15.945Z,52.75
2018-03-16T23:23:43.457Z,52.40
2018-03-16T23:26:10.978Z,52.43
2018-03-16T23:28:38.493Z,52.65
2018-03-16T23:31:06.017Z,52.67
2018-03-16T23:33:33.545Z,52.09
2018-03-16T23:36:01.082Z,53.27
2018-03-16T23:38:28.611Z,52.29
2018-03-16T23:40:56.240Z,52.10
2018-03-16T23:43:23.783Z,51.64
2018-03-16T23:45:51.306Z,52.17
2018-03-16T23:48:18.847Z,51.65
2018-03-16T23:50:46.371Z,51.81
2018-03-16T23:53:13.932Z,52.55
2018-03-16T23:55:41.460Z,51.18
2018-03-16T23:58:09.017Z,50.77
